createdAt,value
2016-05-25T00:00:13.844Z,0
2016-05-25T00:01:15.128Z,0
2016-05-25T00:02:13.896Z,0
2016-05-25T00:03:13.946Z,0
2016-05-25T00:04:13.964Z,0
2016-05-25T00:05:13.999Z,0
2016-05-25T00:06:14.033Z,0
2016-05-25T00:07:14.066Z,0
2016-05-25T00:08:14.100Z,0
2016-05-25T00:09:14.135Z,0
2016-05-25T00:10:14.027Z,0
2016-05-25T00:11:14.186Z,0
2016-05-25T00:12:14.235Z,0
2016-05-25T00:13:14.270Z,0
2016-05-25T00:14:14.288Z,0
2016-05-25T00:15:14.337Z,0
2016-05-25T00:16:14.216Z,0
2016-05-25T00:17:14.390Z,0
2016-05-25T00:18:14.424Z,0
2016-05-25T00:19:14.317Z,0
2016-05-25T00:20:14.492Z,0
2016-05-25T00:21:14.526Z,0
2016-05-25T00:22:14.559Z,0
2016-05-25T00:23:14.609Z,0
2016-05-25T00:24:14.612Z,0
2016-05-25T00:25:14.662Z,0
2016-05-25T00:26:14.711Z,0
2016-05-25T00:27:14.401Z,0
2016-05-25T00:28:14.592Z,0
2016-05-25T00:29:14.782Z,0
2016-05-25T00:30:14.816Z,0
2016-05-25T00:31:15.084Z,0
2016-05-25T00:32:14.742Z,0
2016-05-25T00:33:14.777Z,0
2016-05-25T00:34:14.952Z,0
2016-05-25T00:35:14.969Z,0
2016-05-25T00:36:14.863Z,0
2016-05-25T00:37:15.052Z,0
2016-05-25T00:38:15.103Z,0
2016-05-25T00:39:15.122Z,0
2016-05-25T00:40:15.139Z,0
2016-05-25T00:41:15.174Z,0
2016-05-25T00:42:15.207Z,0
2016-05-25T00:43:14.929Z,0
2016-05-25T00:44:15.274Z,0
2016-05-25T00:45:15.168Z,0
2016-05-25T00:46:15.202Z,0
2016-05-25T00:47:15.080Z,0
2016-05-25T00:48:15.427Z,0
2016-05-25T00:49:15.429Z,0
2016-05-25T00:50:15.479Z,0
2016-05-25T00:51:15.512Z,0
2016-05-25T00:52:15.546Z,0
2016-05-25T00:53:15.596Z,0
2016-05-25T00:54:15.614Z,0
2016-05-25T00:55:15.634Z,0
2016-05-25T00:56:15.526Z,0
2016-05-25T00:57:15.700Z,0
2016-05-25T00:58:15.578Z,0
2016-05-25T00:59:15.769Z,0
2016-05-25T01:00:15.803Z,0
2016-05-25T01:01:15.680Z,0
2016-05-25T01:02:15.714Z,0
2016-05-25T01:03:15.748Z,0
2016-05-25T01:04:15.938Z,0
2016-05-25T01:05:15.956Z,0
2016-05-25T01:06:16.005Z,0
2016-05-25T01:07:16.055Z,0
2016-05-25T01:08:16.058Z,0
2016-05-25T01:09:15.936Z,0
2016-05-25T01:10:16.127Z,0
2016-05-25T01:11:16.160Z,0
2016-05-25T01:12:16.210Z,0
2016-05-25T01:13:16.227Z,0
2016-05-25T01:14:16.262Z,0
2016-05-25T01:15:16.312Z,0
2016-05-25T01:16:16.157Z,0
2016-05-25T01:17:16.379Z,0
2016-05-25T01:18:16.382Z,0
2016-05-25T01:19:16.416Z,0
2016-05-25T01:20:16.465Z,0
2016-05-25T01:21:16.515Z,0
2016-05-25T01:22:16.534Z,0
2016-05-25T01:23:16.411Z,0
2016-05-25T01:24:16.617Z,0
2016-05-25T01:25:16.620Z,0
2016-05-25T01:26:16.653Z,0
2016-05-25T01:27:16.532Z,0
2016-05-25T01:28:16.722Z,0
2016-05-25T01:29:16.584Z,0
2016-05-25T01:30:16.789Z,0
2016-05-25T01:31:16.683Z,0
2016-05-25T01:32:16.701Z,0
2016-05-25T01:33:16.875Z,0
2016-05-25T01:34:16.909Z,0
2016-05-25T01:35:16.959Z,0
2016-05-25T01:36:16.836Z,0
2016-05-25T01:37:17.011Z,0
2016-05-25T01:38:17.044Z,0
2016-05-25T01:39:17.079Z,0
2016-05-25T01:40:17.130Z,0
2016-05-25T01:41:17.147Z,0
2016-05-25T01:42:17.213Z,0
2016-05-25T01:43:17.215Z,0
2016-05-25T01:44:17.233Z,0
2016-05-25T01:45:17.299Z,0
2016-05-25T01:46:17.910Z,0
2016-05-25T01:47:17.226Z,0
2016-05-25T01:48:17.385Z,0
2016-05-25T01:49:17.419Z,0
2016-05-25T01:50:17.296Z,0
2016-05-25T01:51:17.470Z,0
2016-05-25T01:52:17.365Z,0
2016-05-25T01:53:17.554Z,0
2016-05-25T01:54:17.573Z,0
2016-05-25T01:55:17.481Z,0
2016-05-25T01:56:17.656Z,0
2016-05-25T01:57:17.675Z,0
2016-05-25T01:58:17.708Z,0
2016-05-25T01:59:17.742Z,0
2016-05-25T02:00:17.776Z,0
2016-05-25T02:01:18.248Z,0
2016-05-25T02:02:17.829Z,0
2016-05-25T02:03:17.706Z,0
2016-05-25T02:04:17.756Z,0
2016-05-25T02:05:17.930Z,0
2016-05-25T02:06:17.980Z,0
2016-05-25T02:07:17.686Z,0
2016-05-25T02:08:18.032Z,0
2016-05-25T02:09:18.066Z,0
2016-05-25T02:10:17.960Z,0
2016-05-25T02:11:17.822Z,0
2016-05-25T02:12:18.184Z,0
2016-05-25T02:13:18.202Z,0
2016-05-25T02:14:18.096Z,0
2016-05-25T02:15:18.254Z,0
2016-05-25T02:16:18.304Z,0
2016-05-25T02:17:18.868Z,0
2016-05-25T02:18:18.371Z,0
2016-05-25T02:19:18.390Z,0
2016-05-25T02:20:18.424Z,0
2016-05-25T02:21:18.473Z,0
2016-05-25T02:22:18.492Z,0
2016-05-25T02:23:18.526Z,0
2016-05-25T02:24:18.560Z,0
2016-05-25T02:25:18.593Z,0
2016-05-25T02:26:18.628Z,0
2016-05-25T02:27:18.661Z,0
2016-05-25T02:28:18.695Z,0
2016-05-25T02:29:18.728Z,0
2016-05-25T02:30:18.747Z,0
2016-05-25T02:31:19.797Z,0
2016-05-25T02:32:18.831Z,0
2016-05-25T02:33:18.865Z,0
2016-05-25T02:34:18.884Z,0
2016-05-25T02:35:18.933Z,0
2016-05-25T02:36:18.951Z,0
2016-05-25T02:37:18.985Z,0
2016-05-25T02:38:19.019Z,0
2016-05-25T02:39:18.896Z,0
2016-05-25T02:40:19.087Z,0
2016-05-25T02:41:19.136Z,0
2016-05-25T02:42:19.139Z,0
2016-05-25T02:43:19.189Z,0
2016-05-25T02:44:19.222Z,0
2016-05-25T02:45:19.257Z,0
2016-05-25T02:46:18.994Z,0
2016-05-25T02:47:19.340Z,0
2016-05-25T02:48:19.343Z,0
2016-05-25T02:49:19.220Z,0
2016-05-25T02:50:19.410Z,4
2016-05-25T02:51:19.461Z,4
2016-05-25T02:52:19.478Z,4
2016-05-25T02:53:19.513Z,0
2016-05-25T02:54:19.562Z,0
2016-05-25T02:55:19.409Z,4
2016-05-25T02:56:19.615Z,4
2016-05-25T02:57:19.648Z,4
2016-05-25T02:58:19.667Z,4
2016-05-25T02:59:19.716Z,4
2016-05-25T03:00:19.578Z,4
2016-05-25T03:01:19.690Z,8
2016-05-25T03:02:19.881Z,8
2016-05-25T03:03:19.883Z,8
2016-05-25T03:04:19.870Z,8
2016-05-25T03:05:19.997Z,8
2016-05-25T03:06:19.939Z,8
2016-05-25T03:07:19.972Z,8
2016-05-25T03:08:19.991Z,8
2016-05-25T03:09:20.024Z,8
2016-05-25T03:10:20.058Z,12
2016-05-25T03:11:20.091Z,12
2016-05-25T03:12:19.970Z,12
2016-05-25T03:13:20.175Z,20
2016-05-25T03:14:20.194Z,24
2016-05-25T03:15:20.243Z,28
2016-05-25T03:16:20.715Z,28
2016-05-25T03:17:20.327Z,28
2016-05-25T03:18:20.330Z,32
2016-05-25T03:19:20.348Z,44
2016-05-25T03:20:20.226Z,48
2016-05-25T03:21:20.276Z,48
2016-05-25T03:22:20.466Z,52
2016-05-25T03:23:20.499Z,56
2016-05-25T03:24:20.534Z,64
2016-05-25T03:25:20.552Z,68
2016-05-25T03:26:20.571Z,80
2016-05-25T03:27:20.620Z,88
2016-05-25T03:28:20.513Z,84
2016-05-25T03:29:20.672Z,88
2016-05-25T03:30:20.409Z,104
2016-05-25T03:31:20.771Z,120
2016-05-25T03:32:20.976Z,132
2016-05-25T03:33:20.651Z,132
2016-05-25T03:34:20.842Z,124
2016-05-25T03:35:20.891Z,132
2016-05-25T03:36:20.909Z,152
2016-05-25T03:37:20.944Z,168
2016-05-25T03:38:20.836Z,180
2016-05-25T03:39:20.855Z,196
2016-05-25T03:40:21.045Z,200
2016-05-25T03:41:21.079Z,212
2016-05-25T03:42:21.113Z,200
2016-05-25T03:43:41.366Z,204
2016-05-25T03:44:21.165Z,204
2016-05-25T03:45:21.215Z,208
2016-05-25T03:46:21.061Z,216
2016-05-25T03:47:21.283Z,224
2016-05-25T03:48:21.302Z,236
2016-05-25T03:49:21.038Z,252
2016-05-25T03:50:21.369Z,280
2016-05-25T03:51:21.418Z,304
2016-05-25T03:52:21.437Z,316
2016-05-25T03:53:21.471Z,328
2016-05-25T03:54:21.364Z,360
2016-05-25T03:55:21.524Z,384
2016-05-25T03:56:21.416Z,412
2016-05-25T03:57:21.435Z,400
2016-05-25T03:58:21.469Z,376
2016-05-25T03:59:21.660Z,404
2016-05-25T04:00:21.693Z,452
2016-05-25T04:01:21.429Z,488
2016-05-25T04:02:21.777Z,508
2016-05-25T04:03:21.779Z,488
2016-05-25T04:04:21.829Z,432
2016-05-25T04:05:21.707Z,452
2016-05-25T04:06:21.897Z,520
2016-05-25T04:07:21.930Z,636
2016-05-25T04:08:21.965Z,664
2016-05-25T04:09:21.983Z,684
2016-05-25T04:10:21.876Z,652
2016-05-25T04:11:21.894Z,612
2016-05-25T04:12:22.100Z,596
2016-05-25T04:13:22.119Z,624
2016-05-25T04:14:22.012Z,700
2016-05-25T04:15:22.030Z,700
2016-05-25T04:16:22.080Z,676
2016-05-25T04:17:22.504Z,672
2016-05-25T04:18:22.288Z,688
2016-05-25T04:19:22.345Z,752
2016-05-25T04:20:22.403Z,788
2016-05-25T04:21:22.461Z,828
2016-05-25T04:22:22.347Z,868
2016-05-25T04:23:22.420Z,848
2016-05-25T04:24:22.634Z,820
2016-05-25T04:25:22.802Z,784
2016-05-25T04:26:22.532Z,752
2016-05-25T04:27:22.746Z,728
2016-05-25T04:28:22.773Z,764
2016-05-25T04:29:22.810Z,744
2016-05-25T04:30:22.863Z,736
2016-05-25T04:31:23.900Z,720
2016-05-25T04:32:22.765Z,716
2016-05-25T04:33:22.958Z,716
2016-05-25T04:34:22.837Z,752
2016-05-25T04:35:22.856Z,740
2016-05-25T04:36:23.064Z,768
2016-05-25T04:37:22.926Z,868
2016-05-25T04:38:23.134Z,916
2016-05-25T04:39:23.778Z,964
2016-05-25T04:40:23.171Z,1044
2016-05-25T04:41:23.221Z,1056
2016-05-25T04:42:23.256Z,1056
2016-05-25T04:43:23.305Z,964
2016-05-25T04:44:23.324Z,928
2016-05-25T04:45:23.357Z,920
2016-05-25T04:46:23.407Z,864
2016-05-25T04:47:23.270Z,852
2016-05-25T04:48:23.459Z,864
2016-05-25T04:49:23.493Z,880
2016-05-25T04:50:23.512Z,888
2016-05-25T04:51:23.545Z,876
2016-05-25T04:52:23.423Z,820
2016-05-25T04:53:23.613Z,788
2016-05-25T04:54:23.648Z,788
2016-05-25T04:55:23.697Z,828
2016-05-25T04:56:23.715Z,860
2016-05-25T04:57:23.593Z,892
2016-05-25T04:58:23.799Z,948
2016-05-25T04:59:23.817Z,948
2016-05-25T05:00:23.680Z,972
2016-05-25T05:01:23.822Z,1012
2016-05-25T05:02:23.763Z,988
2016-05-25T05:03:23.938Z,928
2016-05-25T05:04:23.971Z,864
2016-05-25T05:05:24.005Z,848
2016-05-25T05:06:23.882Z,888
2016-05-25T05:07:24.073Z,984
2016-05-25T05:08:24.107Z,1096
2016-05-25T05:09:24.140Z,1196
2016-05-25T05:10:24.018Z,1324
2016-05-25T05:11:24.224Z,1484
2016-05-25T05:12:24.071Z,1576
2016-05-25T05:13:24.261Z,1672
2016-05-25T05:14:24.295Z,1672
2016-05-25T05:15:24.329Z,1636
2016-05-25T05:16:24.520Z,1608
2016-05-25T05:17:24.256Z,1736
2016-05-25T05:18:24.446Z,1904
2016-05-25T05:19:24.464Z,1944
2016-05-25T05:20:24.343Z,1824
2016-05-25T05:21:24.376Z,1800
2016-05-25T05:22:24.567Z,1960
2016-05-25T05:23:24.600Z,2124
2016-05-25T05:24:24.619Z,2020
2016-05-25T05:25:24.669Z,1860
2016-05-25T05:26:24.547Z,1916
2016-05-25T05:27:24.424Z,1992
2016-05-25T05:28:24.614Z,1920
2016-05-25T05:29:24.647Z,2044
2016-05-25T05:30:24.822Z,2092
2016-05-25T05:31:24.560Z,2264
2016-05-25T05:32:24.734Z,2584
2016-05-25T05:33:24.924Z,2976
2016-05-25T05:34:24.958Z,3244
2016-05-25T05:35:25.008Z,3372
2016-05-25T05:36:24.870Z,3608
2016-05-25T05:37:24.888Z,3468
2016-05-25T05:38:25.094Z,3384
2016-05-25T05:39:25.112Z,3212
2016-05-25T05:40:25.146Z,2932
2016-05-25T05:41:24.883Z,2668
2016-05-25T05:42:25.073Z,2596
2016-05-25T05:43:25.248Z,2612
2016-05-25T05:44:25.297Z,2748
2016-05-25T05:45:25.004Z,2788
2016-05-25T05:46:25.209Z,3088
2016-05-25T05:47:25.274Z,3524
2016-05-25T05:48:25.418Z,3784
2016-05-25T05:49:25.467Z,3676
2016-05-25T05:50:25.501Z,3472
2016-05-25T05:51:25.520Z,3488
2016-05-25T05:52:25.569Z,3556
2016-05-25T05:53:25.587Z,3688
2016-05-25T05:54:25.621Z,3652
2016-05-25T05:55:25.671Z,3492
2016-05-25T05:56:25.533Z,3284
2016-05-25T05:57:25.723Z,3004
2016-05-25T05:58:25.773Z,2784
2016-05-25T05:59:25.791Z,2732
2016-05-25T06:00:25.669Z,2716
2016-05-25T06:01:25.561Z,2508
2016-05-25T06:02:25.736Z,2424
2016-05-25T06:03:25.802Z,2448
2016-05-25T06:04:25.960Z,2528
2016-05-25T06:05:25.994Z,2576
2016-05-25T06:06:26.029Z,2816
2016-05-25T06:07:26.062Z,3308
2016-05-25T06:08:25.941Z,3508
2016-05-25T06:09:25.990Z,3212
2016-05-25T06:10:26.165Z,3220
2016-05-25T06:11:26.199Z,3548
2016-05-25T06:12:26.216Z,3916
2016-05-25T06:13:26.266Z,4180
2016-05-25T06:14:26.284Z,4208
2016-05-25T06:15:26.334Z,4304
2016-05-25T06:16:26.368Z,4520
2016-05-25T06:17:26.386Z,4612
2016-05-25T06:18:26.280Z,4640
2016-05-25T06:19:26.454Z,4920
2016-05-25T06:20:26.331Z,5040
2016-05-25T06:21:26.523Z,4772
2016-05-25T06:22:26.556Z,4616
2016-05-25T06:23:31.403Z,4212
2016-05-25T06:24:26.468Z,4068
2016-05-25T06:25:26.501Z,4028
2016-05-25T06:26:26.692Z,3844
2016-05-25T06:27:26.725Z,3552
2016-05-25T06:28:30.681Z,3372
2016-05-25T06:29:26.793Z,3048
2016-05-25T06:30:26.827Z,2724
2016-05-25T06:31:27.064Z,2320
2016-05-25T06:32:26.755Z,2116
2016-05-25T06:33:26.773Z,2356
2016-05-25T06:34:26.980Z,2780
2016-05-25T06:35:27.013Z,2828
2016-05-25T06:36:27.031Z,2952
2016-05-25T06:37:26.925Z,2864
2016-05-25T06:38:31.786Z,3100
2016-05-25T06:39:26.977Z,3444
2016-05-25T06:40:27.166Z,3644
2016-05-25T06:41:27.202Z,3880
2016-05-25T06:42:27.251Z,4008
2016-05-25T06:43:27.113Z,4348
2016-05-25T06:44:27.302Z,4532
2016-05-25T06:45:27.352Z,4576
2016-05-25T06:46:28.089Z,4552
2016-05-25T06:47:27.279Z,4436
2016-05-25T06:48:34.892Z,3724
2016-05-25T06:49:27.487Z,3328
2016-05-25T06:50:27.507Z,3016
2016-05-25T06:51:27.540Z,2960
2016-05-25T06:52:27.573Z,2912
2016-05-25T06:53:32.296Z,2916
2016-05-25T06:54:27.517Z,3068
2016-05-25T06:55:27.536Z,3340
2016-05-25T06:56:27.570Z,3468
2016-05-25T06:57:27.603Z,3528
2016-05-25T06:58:29.778Z,3824
2016-05-25T06:59:27.811Z,4328
2016-05-25T07:00:27.689Z,4836
2016-05-25T07:01:28.348Z,5344
2016-05-25T07:02:28.289Z,5636
2016-05-25T07:03:32.088Z,6032
2016-05-25T07:04:27.997Z,6340
2016-05-25T07:05:27.875Z,6540
2016-05-25T07:06:28.065Z,6564
2016-05-25T07:07:28.083Z,6676
2016-05-25T07:08:31.508Z,6928
2016-05-25T07:09:28.151Z,7044
2016-05-25T07:10:28.201Z,7484
2016-05-25T07:11:28.235Z,7708
2016-05-25T07:12:28.252Z,7620
2016-05-25T07:13:36.209Z,6988
2016-05-25T07:14:28.337Z,6336
2016-05-25T07:15:28.214Z,5908
2016-05-25T07:16:28.467Z,6412
2016-05-25T07:17:28.485Z,7080
2016-05-25T07:18:35.894Z,6792
2016-05-25T07:19:28.350Z,6228
2016-05-25T07:20:28.540Z,5788
2016-05-25T07:21:28.574Z,5112
2016-05-25T07:22:28.609Z,4364
2016-05-25T07:23:33.392Z,3760
2016-05-25T07:24:28.692Z,3492
2016-05-25T07:25:28.569Z,3484
2016-05-25T07:26:28.587Z,3532
2016-05-25T07:27:28.778Z,3680
2016-05-25T07:28:36.202Z,3704
2016-05-25T07:29:28.845Z,4036
2016-05-25T07:30:28.723Z,5032
2016-05-25T07:31:28.914Z,5604
2016-05-25T07:32:29.494Z,5372
2016-05-25T07:33:34.497Z,5172
2016-05-25T07:34:28.859Z,5188
2016-05-25T07:35:29.049Z,5692
2016-05-25T07:36:29.084Z,5372
2016-05-25T07:37:29.117Z,4588
2016-05-25T07:38:30.777Z,4760
2016-05-25T07:39:29.029Z,5112
2016-05-25T07:40:29.235Z,5108
2016-05-25T07:41:29.112Z,5112
2016-05-25T07:42:29.302Z,5520
2016-05-25T07:43:30.227Z,5436
2016-05-25T07:44:29.371Z,5416
2016-05-25T07:45:29.404Z,5272
2016-05-25T07:46:29.454Z,5176
2016-05-25T07:47:31.144Z,5212
2016-05-25T07:48:30.443Z,5320
2016-05-25T07:49:29.541Z,5320
2016-05-25T07:50:29.574Z,5728
2016-05-25T07:51:29.608Z,5976
2016-05-25T07:52:29.626Z,5724
2016-05-25T07:53:31.426Z,5268
2016-05-25T07:54:29.570Z,4852
2016-05-25T07:55:29.588Z,4664
2016-05-25T07:56:29.621Z,4340
2016-05-25T07:57:35.842Z,3912
2016-05-25T07:58:31.237Z,4188
2016-05-25T07:59:29.879Z,4860
2016-05-25T08:00:29.772Z,5028
2016-05-25T08:01:30.181Z,4916
2016-05-25T08:02:30.747Z,4636
2016-05-25T08:03:29.859Z,4560
2016-05-25T08:04:30.050Z,5256
2016-05-25T08:05:29.942Z,6016
2016-05-25T08:06:30.133Z,6672
2016-05-25T08:07:30.151Z,7020
2016-05-25T08:08:31.560Z,7304
2016-05-25T08:09:30.219Z,7472
2016-05-25T08:10:30.269Z,7580
2016-05-25T08:11:30.287Z,7640
2016-05-25T08:12:30.336Z,7584
2016-05-25T08:13:31.948Z,7328
2016-05-25T08:14:30.232Z,7072
2016-05-25T08:15:30.282Z,6620
2016-05-25T08:16:31.160Z,6176
2016-05-25T08:17:31.225Z,5976
2016-05-25T08:18:32.493Z,5988
2016-05-25T08:19:30.418Z,5812
2016-05-25T08:20:30.608Z,5656
2016-05-25T08:21:30.485Z,5644
2016-05-25T08:22:33.754Z,5716
2016-05-25T08:23:30.726Z,5736
2016-05-25T08:24:30.587Z,5632
2016-05-25T08:25:30.778Z,5764
2016-05-25T08:26:30.826Z,6160
2016-05-25T08:27:30.845Z,6320
2016-05-25T08:28:30.723Z,6200
2016-05-25T08:29:30.914Z,5860
2016-05-25T08:30:30.947Z,5352
2016-05-25T08:31:31.325Z,4616
2016-05-25T08:32:31.531Z,4044
2016-05-25T08:33:33.940Z,3800
2016-05-25T08:34:31.083Z,3620
2016-05-25T08:35:31.148Z,3476
2016-05-25T08:36:31.166Z,3628
2016-05-25T08:37:32.061Z,4320
2016-05-25T08:38:32.406Z,5128
2016-05-25T08:39:31.269Z,5440
2016-05-25T08:40:31.302Z,5540
2016-05-25T08:41:31.180Z,5636
2016-05-25T08:42:31.355Z,5328
2016-05-25T08:43:32.388Z,4492
2016-05-25T08:44:31.297Z,3884
2016-05-25T08:45:31.472Z,3652
2016-05-25T08:46:31.365Z,3716
2016-05-25T08:47:31.712Z,4088
2016-05-25T08:48:31.902Z,4504
2016-05-25T08:49:31.607Z,5152
2016-05-25T08:50:31.501Z,5460
2016-05-25T08:51:31.691Z,5436
2016-05-25T08:52:31.741Z,5588
2016-05-25T08:53:31.587Z,5784
2016-05-25T08:54:31.793Z,5988
2016-05-25T08:55:31.812Z,5844
2016-05-25T08:56:31.861Z,5700
2016-05-25T08:57:31.723Z,5116
2016-05-25T08:58:31.929Z,4512
2016-05-25T08:59:31.807Z,4244
2016-05-25T09:00:31.997Z,4316
2016-05-25T09:01:32.281Z,4240
2016-05-25T09:02:32.065Z,4040
2016-05-25T09:03:32.098Z,3804
2016-05-25T09:04:32.116Z,3592
2016-05-25T09:05:32.167Z,3548
2016-05-25T09:06:32.184Z,3436
2016-05-25T09:07:32.094Z,3540
2016-05-25T09:08:32.112Z,3748
2016-05-25T09:09:32.317Z,3864
2016-05-25T09:10:32.180Z,4048
2016-05-25T09:11:32.370Z,4092
2016-05-25T09:12:32.405Z,4212
2016-05-25T09:13:33.750Z,4496
2016-05-25T09:14:32.175Z,4792
2016-05-25T09:15:32.506Z,5212
2016-05-25T09:16:32.416Z,5732
2016-05-25T09:17:33.417Z,6144
2016-05-25T09:18:32.624Z,6412
2016-05-25T09:19:32.657Z,6584
2016-05-25T09:20:32.785Z,6708
2016-05-25T09:21:32.725Z,6908
2016-05-25T09:22:33.791Z,7216
2016-05-25T09:23:32.824Z,7524
2016-05-25T09:24:32.655Z,7556
2016-05-25T09:25:32.704Z,7372
2016-05-25T09:26:32.910Z,7392
2016-05-25T09:27:34.959Z,7716
2016-05-25T09:28:32.806Z,8036
2016-05-25T09:29:32.996Z,8320
2016-05-25T09:30:33.031Z,8312
2016-05-25T09:31:32.924Z,8600
2016-05-25T09:32:33.973Z,9108
2016-05-25T09:33:33.132Z,9480
2016-05-25T09:34:33.167Z,9744
2016-05-25T09:35:33.200Z,10020
2016-05-25T09:36:33.094Z,10336
2016-05-25T09:37:33.283Z,10532
2016-05-25T09:38:33.303Z,10516
2016-05-25T09:39:33.352Z,10356
2016-05-25T09:40:33.369Z,10288
2016-05-25T09:41:33.420Z,10348
2016-05-25T09:42:33.454Z,10408
2016-05-25T09:43:33.488Z,10360
2016-05-25T09:44:33.208Z,10336
2016-05-25T09:45:33.430Z,10260
2016-05-25T09:46:33.839Z,10020
2016-05-25T09:47:35.374Z,9808
2016-05-25T09:48:33.672Z,9556
2016-05-25T09:49:33.441Z,9164
2016-05-25T09:50:33.741Z,8904
2016-05-25T09:51:33.774Z,8564
2016-05-25T09:52:35.777Z,8196
2016-05-25T09:53:33.530Z,7944
2016-05-25T09:54:33.876Z,7616
2016-05-25T09:55:33.754Z,7268
2016-05-25T09:56:33.943Z,6980
2016-05-25T09:57:33.979Z,6936
2016-05-25T09:58:33.856Z,7188
2016-05-25T09:59:33.936Z,7564
2016-05-25T10:00:34.079Z,7820
2016-05-25T10:01:33.957Z,7868
2016-05-25T10:02:33.882Z,7952
2016-05-25T10:03:34.212Z,8060
2016-05-25T10:04:34.075Z,8088
2016-05-25T10:05:34.265Z,8212
2016-05-25T10:06:34.299Z,8456
2016-05-25T10:07:35.958Z,8640
2016-05-25T10:08:34.367Z,8848
2016-05-25T10:09:34.261Z,9000
2016-05-25T10:10:34.450Z,9136
2016-05-25T10:11:34.328Z,9352
2016-05-25T10:12:34.362Z,9540
2016-05-25T10:13:34.552Z,9716
2016-05-25T10:14:34.571Z,9924
2016-05-25T10:15:34.464Z,10236
2016-05-25T10:16:34.655Z,10692
2016-05-25T10:17:34.720Z,11092
2016-05-25T10:18:34.738Z,11400
2016-05-25T10:19:34.771Z,11652
2016-05-25T10:20:34.805Z,11980
2016-05-25T10:21:34.871Z,12264
2016-05-25T10:22:34.874Z,12660
2016-05-25T10:23:34.751Z,12896
2016-05-25T10:24:34.786Z,13128
2016-05-25T10:25:34.991Z,13304
2016-05-25T10:26:34.899Z,13248
2016-05-25T10:27:34.747Z,13060
2016-05-25T10:28:35.109Z,12928
2016-05-25T10:29:35.126Z,12916
2016-05-25T10:30:35.160Z,12628
2016-05-25T10:31:35.210Z,12204
2016-05-25T10:32:36.010Z,11792
2016-05-25T10:33:35.278Z,11300
2016-05-25T10:34:35.312Z,10720
2016-05-25T10:35:35.190Z,10212
2016-05-25T10:36:35.395Z,9768
2016-05-25T10:37:35.429Z,9492
2016-05-25T10:38:35.479Z,9184
2016-05-25T10:39:35.497Z,9244
2016-05-25T10:40:35.625Z,9660
2016-05-25T10:41:35.425Z,10388
2016-05-25T10:42:35.615Z,10812
2016-05-25T10:43:35.664Z,10920
2016-05-25T10:44:35.682Z,10988
2016-05-25T10:45:35.419Z,11020
2016-05-25T10:46:35.782Z,11332
2016-05-25T10:47:35.925Z,11628
2016-05-25T10:48:35.850Z,12060
2016-05-25T10:49:35.868Z,12508
2016-05-25T10:50:35.746Z,12748
2016-05-25T10:51:35.780Z,12912
2016-05-25T10:52:35.986Z,13072
2016-05-25T10:53:35.707Z,13512
2016-05-25T10:54:36.069Z,14096
2016-05-25T10:55:36.088Z,14728
2016-05-25T10:56:36.121Z,14768
2016-05-25T10:57:35.858Z,14244
2016-05-25T10:58:36.204Z,13764
2016-05-25T10:59:36.254Z,13496
2016-05-25T11:00:36.288Z,13232
2016-05-25T11:01:36.165Z,13300
2016-05-25T11:02:36.247Z,13432
2016-05-25T11:03:36.406Z,13428
2016-05-25T11:04:36.424Z,13476
2016-05-25T11:05:36.459Z,13468
2016-05-25T11:06:36.492Z,13368
2016-05-25T11:07:36.385Z,13272
2016-05-25T11:08:36.575Z,13080
2016-05-25T11:09:36.609Z,13060
2016-05-25T11:10:36.643Z,13028
2016-05-25T11:11:36.693Z,12824
2016-05-25T11:12:36.555Z,12548
2016-05-25T11:13:36.604Z,12356
2016-05-25T11:14:36.794Z,12056
2016-05-25T11:15:36.672Z,11740
2016-05-25T11:16:36.863Z,11324
2016-05-25T11:17:36.912Z,11056
2016-05-25T11:18:36.947Z,10768
2016-05-25T11:19:36.683Z,10336
2016-05-25T11:20:37.029Z,9944
2016-05-25T11:21:37.048Z,9596
2016-05-25T11:22:37.097Z,9300
2016-05-25T11:23:37.147Z,9080
2016-05-25T11:24:36.868Z,8920
2016-05-25T11:25:37.231Z,8768
2016-05-25T11:26:37.093Z,8532
2016-05-25T11:27:37.298Z,8248
2016-05-25T11:28:37.176Z,8044
2016-05-25T11:29:37.210Z,7900
2016-05-25T11:30:37.384Z,7776
2016-05-25T11:31:37.278Z,7700
2016-05-25T11:32:37.499Z,7676
2016-05-25T11:33:37.518Z,7600
2016-05-25T11:34:37.537Z,7464
2016-05-25T11:35:37.601Z,7332
2016-05-25T11:36:37.619Z,7176
2016-05-25T11:37:37.685Z,6960
2016-05-25T11:38:37.703Z,6792
2016-05-25T11:39:37.581Z,6688
2016-05-25T11:40:37.787Z,6616
2016-05-25T11:41:37.805Z,6632
2016-05-25T11:42:37.839Z,6820
2016-05-25T11:43:37.731Z,7132
2016-05-25T11:44:37.766Z,7572
2016-05-25T11:45:37.972Z,7800
2016-05-25T11:46:37.990Z,7908
2016-05-25T11:47:38.040Z,8024
2016-05-25T11:48:38.058Z,8448
2016-05-25T11:49:38.108Z,9132
2016-05-25T11:50:38.125Z,9604
2016-05-25T11:51:38.175Z,9652
2016-05-25T11:52:37.897Z,9752
2016-05-25T11:53:38.243Z,10064
2016-05-25T11:54:38.121Z,10724
2016-05-25T11:55:38.155Z,11452
2016-05-25T11:56:38.345Z,11992
2016-05-25T11:57:38.410Z,12268
2016-05-25T11:58:38.429Z,12476
2016-05-25T11:59:38.166Z,12384
2016-05-25T12:00:38.199Z,12076
2016-05-25T12:01:38.405Z,11956
2016-05-25T12:02:38.940Z,12176
2016-05-25T12:03:38.490Z,12472
2016-05-25T12:04:38.523Z,12940
2016-05-25T12:05:38.681Z,13392
2016-05-25T12:06:38.747Z,13768
2016-05-25T12:07:38.609Z,13368
2016-05-25T12:08:38.784Z,12484
2016-05-25T12:09:38.834Z,11520
2016-05-25T12:10:38.883Z,11228
2016-05-25T12:11:38.963Z,11016
2016-05-25T12:12:38.967Z,10852
2016-05-25T12:13:38.672Z,10420
2016-05-25T12:14:39.019Z,10232
2016-05-25T12:15:39.052Z,10064
2016-05-25T12:16:53.242Z,9976
2016-05-25T12:17:39.402Z,10080
2016-05-25T12:18:39.170Z,10592
2016-05-25T12:19:39.204Z,11116
2016-05-25T12:20:39.269Z,11244
2016-05-25T12:21:39.131Z,11412
2016-05-25T12:22:39.337Z,11504
2016-05-25T12:23:39.355Z,11580
2016-05-25T12:24:39.233Z,11424
2016-05-25T12:25:39.438Z,11068
2016-05-25T12:26:39.472Z,10584
2016-05-25T12:27:39.507Z,9892
2016-05-25T12:28:39.541Z,9256
2016-05-25T12:29:39.574Z,9000
2016-05-25T12:30:39.640Z,9052
2016-05-25T12:31:39.735Z,9284
2016-05-25T12:32:39.770Z,9744
2016-05-25T12:33:39.741Z,10052
2016-05-25T12:34:39.619Z,9988
2016-05-25T12:35:39.653Z,9760
2016-05-25T12:36:39.843Z,9536
2016-05-25T12:37:39.877Z,9400
2016-05-25T12:38:39.787Z,9656
2016-05-25T12:39:39.961Z,10020
2016-05-25T12:40:39.839Z,10268
2016-05-25T12:41:40.044Z,10284
2016-05-25T12:42:40.078Z,9976
2016-05-25T12:43:40.112Z,9672
2016-05-25T12:44:39.990Z,9288
2016-05-25T12:45:40.023Z,8816
2016-05-25T12:46:40.214Z,8520
2016-05-25T12:47:40.951Z,8480
2016-05-25T12:48:40.298Z,8676
2016-05-25T12:49:40.192Z,8740
2016-05-25T12:50:40.380Z,8616
2016-05-25T12:51:40.102Z,8592
2016-05-25T12:52:40.308Z,8696
2016-05-25T12:53:40.483Z,8844
2016-05-25T12:54:40.517Z,8996
2016-05-25T12:55:40.425Z,8772
2016-05-25T12:56:40.599Z,8348
2016-05-25T12:57:40.494Z,8084
2016-05-25T12:58:40.683Z,7916
2016-05-25T12:59:40.718Z,7756
2016-05-25T13:00:40.595Z,7532
2016-05-25T13:01:40.786Z,7568
2016-05-25T13:02:40.913Z,7700
2016-05-25T13:03:40.712Z,7876
2016-05-25T13:04:40.888Z,8064
2016-05-25T13:05:40.781Z,8264
2016-05-25T13:06:40.830Z,8480
2016-05-25T13:07:41.020Z,8456
2016-05-25T13:08:40.882Z,7740
2016-05-25T13:09:41.103Z,7540
2016-05-25T13:10:41.123Z,7860
2016-05-25T13:11:41.031Z,7976
2016-05-25T13:12:41.206Z,8012
2016-05-25T13:13:41.084Z,7976
2016-05-25T13:14:41.273Z,7672
2016-05-25T13:15:41.323Z,7372
2016-05-25T13:16:41.357Z,7452
2016-05-25T13:17:41.641Z,7896
2016-05-25T13:18:41.425Z,8160
2016-05-25T13:19:41.459Z,8192
2016-05-25T13:20:41.509Z,8016
2016-05-25T13:21:41.542Z,7844
2016-05-25T13:22:41.420Z,7908
2016-05-25T13:23:41.610Z,8148
2016-05-25T13:24:41.650Z,8804
2016-05-25T13:25:41.582Z,9816
2016-05-25T13:26:41.765Z,12156
2016-05-25T13:27:41.838Z,11184
2016-05-25T13:28:41.895Z,11316
2016-05-25T13:29:41.949Z,11664
2016-05-25T13:30:42.054Z,12916
2016-05-25T13:31:41.908Z,15016
2016-05-25T13:32:44.966Z,16288
2016-05-25T13:33:42.135Z,32224
2016-05-25T13:34:42.034Z,26624
2016-05-25T13:35:42.243Z,24032
2016-05-25T13:36:42.108Z,20448
2016-05-25T13:37:42.348Z,18560